createdAt,value
2022-11-30T00:01:22.262Z,3.71
2022-11-30T00:03:53.737Z,3.72
2022-11-30T00:06:23.498Z,3.74
2022-11-30T00:08:55.894Z,3.68
2022-11-30T00:11:25.307Z,3.67
2022-11-30T00:13:53.216Z,3.60
2022-11-30T00:16:21.102Z,3.53
2022-11-30T00:18:48.624Z,3.53
2022-11-30T00:21:16.304Z,3.58
2022-11-30T00:23:45.637Z,3.41
2022-11-30T00:26:18.499Z,3.46
2022-11-30T00:28:47.744Z,3.48
2022-11-30T00:31:18.414Z,3.44
2022-11-30T00:33:46.621Z,3.45
2022-11-30T00:36:17.294Z,3.41
2022-11-30T00:38:45.714Z,3.47
2022-11-30T00:41:13.739Z,3.42
2022-11-30T00:43:41.475Z,3.28
2022-11-30T00:46:09.690Z,3.31
2022-11-30T00:48:39.050Z,3.38
2022-11-30T00:51:07.558Z,3.42
2022-11-30T00:53:35.130Z,3.40
2022-11-30T00:56:02.864Z,3.33
2022-11-30T00:58:30.319Z,3.26
2022-11-30T01:00:57.836Z,3.35
2022-11-30T01:03:25.729Z,3.38
2022-11-30T01:05:53.153Z,3.41
2022-11-30T01:08:20.774Z,3.46
2022-11-30T01:10:53.331Z,3.51
2022-11-30T01:13:20.733Z,3.48
2022-11-30T01:15:48.455Z,3.46
2022-11-30T01:18:16.342Z,3.46
2022-11-30T01:20:43.832Z,3.49
2022-11-30T01:23:11.768Z,3.53
2022-11-30T01:25:39.699Z,3.55
2022-11-30T01:28:07.329Z,3.59
2022-11-30T01:30:35.063Z,3.66
2022-11-30T01:33:04.388Z,3.68
2022-11-30T01:35:31.848Z,3.66
2022-11-30T01:37:59.560Z,3.71
2022-11-30T01:40:27.165Z,3.73
2022-11-30T01:42:54.670Z,3.79
2022-11-30T01:45:22.410Z,3.77
2022-11-30T01:47:56.366Z,3.80
2022-11-30T01:50:28.097Z,3.79
2022-11-30T01:52:57.249Z,3.85
2022-11-30T01:55:24.859Z,3.88
2022-11-30T01:58:09.734Z,3.91
2022-11-30T02:00:38.095Z,3.97
2022-11-30T02:03:32.664Z,3.95
2022-11-30T02:06:00.944Z,3.96
2022-11-30T02:08:30.878Z,3.97
2022-11-30T02:11:03.100Z,3.97
2022-11-30T02:13:58.627Z,3.97
2022-11-30T02:16:38.290Z,3.98
2022-11-30T02:19:38.511Z,3.97
2022-11-30T02:22:24.138Z,3.92
2022-11-30T02:25:18.145Z,3.98
2022-11-30T02:27:45.466Z,3.93
2022-11-30T02:30:21.334Z,3.97
2022-11-30T02:33:03.728Z,3.99
2022-11-30T02:35:35.223Z,3.97
2022-11-30T02:38:04.318Z,3.99
2022-11-30T02:40:32.542Z,3.94
2022-11-30T02:43:04.387Z,3.93
2022-11-30T02:45:35.879Z,3.85
2022-11-30T02:48:09.811Z,3.82
2022-11-30T02:50:45.085Z,3.80
2022-11-30T02:53:13.541Z,3.81
2022-11-30T02:55:41.379Z,3.78
2022-11-30T02:58:08.865Z,3.79
2022-11-30T03:00:36.357Z,3.76
2022-11-30T03:03:04.184Z,3.78
2022-11-30T03:05:31.741Z,3.79
2022-11-30T03:07:59.203Z,3.84
2022-11-30T03:10:27.081Z,3.76
2022-11-30T03:13:00.992Z,3.73
2022-11-30T03:15:28.795Z,3.66
2022-11-30T03:17:56.265Z,3.62
2022-11-30T03:20:23.718Z,3.54
2022-11-30T03:22:51.490Z,3.58
2022-11-30T03:25:18.959Z,3.54
2022-11-30T03:27:46.389Z,3.45
2022-11-30T03:30:14.211Z,3.39
2022-11-30T03:32:41.624Z,3.43
2022-11-30T03:35:10.110Z,3.48
2022-11-30T03:37:37.870Z,3.37
2022-11-30T03:40:06.020Z,3.39
2022-11-30T03:42:33.407Z,3.41
2022-11-30T03:45:01.073Z,3.40
2022-11-30T03:47:28.459Z,3.33
2022-11-30T03:49:55.883Z,3.34
2022-11-30T03:52:23.623Z,3.33
2022-11-30T03:54:51.005Z,3.38
2022-11-30T03:57:18.452Z,3.34
2022-11-30T03:59:46.198Z,3.36
2022-11-30T04:02:13.662Z,3.38
2022-11-30T04:04:41.466Z,3.37
2022-11-30T04:07:08.890Z,3.30
2022-11-30T04:09:36.274Z,3.35
2022-11-30T04:12:04.034Z,3.42
2022-11-30T04:14:31.479Z,3.41
2022-11-30T04:16:58.873Z,3.47
2022-11-30T04:19:26.602Z,3.43
2022-11-30T04:21:54.010Z,3.52
2022-11-30T04:24:21.478Z,3.57
2022-11-30T04:26:49.206Z,3.55
2022-11-30T04:29:16.610Z,3.52
2022-11-30T04:31:44.082Z,3.56
2022-11-30T04:34:11.906Z,3.57
2022-11-30T04:36:39.405Z,3.56
2022-11-30T04:39:06.791Z,3.58
2022-11-30T04:41:34.566Z,3.58
2022-11-30T04:44:01.989Z,3.54
2022-11-30T04:46:29.696Z,3.56
2022-11-30T04:48:57.450Z,3.56
2022-11-30T04:51:24.837Z,3.61
2022-11-30T04:53:52.290Z,3.66
2022-11-30T04:56:20.021Z,3.68
2022-11-30T04:58:47.534Z,3.65
2022-11-30T05:01:14.987Z,3.67
2022-11-30T05:03:42.726Z,3.65
2022-11-30T05:06:10.106Z,3.68
2022-11-30T05:08:37.490Z,3.70
2022-11-30T05:11:05.419Z,3.73
2022-11-30T05:13:33.006Z,3.75
2022-11-30T05:16:00.490Z,3.77
2022-11-30T05:18:29.443Z,3.81
2022-11-30T05:20:56.839Z,3.82
2022-11-30T05:23:24.227Z,3.88
2022-11-30T05:25:51.929Z,3.91
2022-11-30T05:28:19.379Z,3.93
2022-11-30T05:30:53.165Z,3.91
2022-11-30T05:33:20.874Z,3.93
2022-11-30T05:35:48.352Z,3.91
2022-11-30T05:38:15.856Z,3.97
2022-11-30T05:40:43.567Z,3.93
2022-11-30T05:43:11.177Z,3.92
2022-11-30T05:45:39.305Z,3.91
2022-11-30T05:48:07.248Z,3.93
2022-11-30T05:50:34.692Z,3.95
2022-11-30T05:53:02.210Z,3.98
2022-11-30T05:55:30.672Z,3.95
2022-11-30T05:57:58.103Z,3.93
2022-11-30T06:00:25.614Z,3.98
2022-11-30T06:02:58.455Z,3.99
2022-11-30T06:05:27.465Z,3.99
2022-11-30T06:07:55.681Z,4.03
2022-11-30T06:10:25.393Z,4.03
2022-11-30T06:12:52.859Z,5.06
2022-11-30T06:15:20.541Z,5.87
2022-11-30T06:17:47.934Z,6.08
2022-11-30T06:20:15.434Z,5.53
2022-11-30T06:22:45.726Z,5.24
2022-11-30T06:25:13.495Z,5.09
2022-11-30T06:27:41.033Z,4.86
2022-11-30T06:30:10.077Z,4.81
2022-11-30T06:32:37.493Z,4.67
2022-11-30T06:35:05.170Z,4.59
2022-11-30T06:37:35.590Z,4.59
2022-11-30T06:40:07.550Z,4.51
2022-11-30T06:42:37.091Z,4.47
2022-11-30T06:45:06.465Z,4.46
2022-11-30T06:47:33.990Z,4.41
2022-11-30T06:50:01.839Z,4.39
2022-11-30T06:52:31.570Z,4.39
2022-11-30T06:54:58.967Z,4.41
2022-11-30T06:57:30.200Z,4.38
2022-11-30T06:59:57.971Z,4.35
2022-11-30T07:02:25.407Z,4.40
2022-11-30T07:04:53.203Z,4.38
2022-11-30T07:07:21.239Z,4.37
2022-11-30T07:09:50.001Z,4.33
2022-11-30T07:12:18.242Z,4.39
2022-11-30T07:14:45.994Z,4.40
2022-11-30T07:17:13.794Z,4.41
2022-11-30T07:19:41.454Z,4.35
2022-11-30T07:22:08.850Z,4.32
2022-11-30T07:24:59.340Z,4.27
2022-11-30T07:27:27.023Z,4.24
2022-11-30T07:29:54.427Z,4.17
2022-11-30T07:32:21.865Z,4.18
2022-11-30T07:34:49.748Z,4.14
2022-11-30T07:37:18.518Z,4.17
2022-11-30T07:39:45.940Z,4.13
2022-11-30T07:42:13.752Z,4.16
2022-11-30T07:44:42.670Z,4.12
2022-11-30T07:47:10.206Z,4.10
2022-11-30T07:49:39.832Z,4.14
2022-11-30T07:52:08.403Z,4.12
2022-11-30T07:54:35.854Z,4.11
2022-11-30T07:57:03.735Z,4.13
2022-11-30T07:59:31.175Z,4.16
2022-11-30T08:01:58.758Z,4.19
2022-11-30T08:04:26.535Z,4.18
2022-11-30T08:06:55.054Z,4.13
2022-11-30T08:09:22.914Z,4.18
2022-11-30T08:11:50.670Z,4.19
2022-11-30T08:14:18.150Z,4.19
2022-11-30T08:16:45.637Z,4.23
2022-11-30T08:19:13.485Z,4.22
2022-11-30T08:21:40.937Z,4.26
2022-11-30T08:24:12.439Z,4.25
2022-11-30T08:26:40.327Z,4.28
2022-11-30T08:29:10.721Z,4.33
2022-11-30T08:31:39.593Z,4.37
2022-11-30T08:34:10.787Z,4.43
2022-11-30T08:36:38.521Z,4.44
2022-11-30T08:39:08.181Z,4.40
2022-11-30T08:41:36.026Z,4.37
2022-11-30T08:44:03.523Z,4.40
2022-11-30T08:49:22.932Z,4.40
2022-11-30T08:54:46.348Z,4.50
2022-11-30T08:57:19.463Z,4.41
2022-11-30T08:59:48.014Z,4.41
2022-11-30T09:02:18.228Z,4.33
2022-11-30T09:04:49.219Z,4.37
2022-11-30T09:07:18.199Z,4.44
2022-11-30T09:09:45.865Z,4.44
2022-11-30T09:12:13.258Z,4.46
2022-11-30T09:14:41.018Z,4.48
2022-11-30T09:17:08.491Z,4.57
2022-11-30T09:19:36.002Z,4.59
2022-11-30T09:22:03.914Z,4.62
2022-11-30T09:24:31.417Z,4.71
2022-11-30T09:26:58.810Z,4.69
2022-11-30T09:29:26.583Z,4.70
2022-11-30T09:31:54.065Z,4.78
2022-11-30T09:34:21.641Z,4.78
2022-11-30T09:36:49.342Z,4.81
2022-11-30T09:39:16.866Z,4.79
2022-11-30T09:42:09.400Z,4.86
2022-11-30T09:45:12.350Z,4.95
2022-11-30T09:48:30.522Z,5.02
2022-11-30T09:51:05.278Z,5.04
2022-11-30T09:53:43.221Z,5.05
2022-11-30T09:56:32.947Z,5.05
2022-11-30T09:59:06.740Z,5.09
2022-11-30T10:01:37.464Z,5.11
2022-11-30T10:04:06.220Z,5.14
2022-11-30T10:06:55.581Z,5.17
2022-11-30T10:09:30.770Z,5.19
2022-11-30T10:12:21.786Z,5.21
2022-11-30T10:15:02.959Z,5.23
2022-11-30T10:17:42.477Z,5.27
2022-11-30T10:20:38.135Z,5.31
2022-11-30T10:23:10.256Z,5.26
2022-11-30T10:25:57.314Z,5.22
2022-11-30T10:28:47.975Z,5.25
2022-11-30T10:31:17.567Z,5.25
2022-11-30T10:33:50.755Z,5.25
2022-11-30T10:36:36.891Z,5.23
2022-11-30T10:39:14.437Z,5.29
2022-11-30T10:41:46.479Z,5.30
2022-11-30T10:44:27.218Z,5.27
2022-11-30T10:47:03.225Z,5.24
2022-11-30T10:49:32.229Z,5.31
2022-11-30T10:52:05.157Z,5.28
2022-11-30T10:54:35.200Z,5.35
2022-11-30T10:57:05.746Z,5.37
2022-11-30T10:59:52.811Z,5.37
2022-11-30T11:02:34.853Z,5.41
2022-11-30T11:05:30.947Z,5.36
2022-11-30T11:08:06.753Z,5.37
2022-11-30T11:10:42.805Z,5.37
2022-11-30T11:13:41.053Z,5.36
2022-11-30T11:16:12.588Z,5.41
2022-11-30T11:18:57.378Z,5.37
2022-11-30T11:21:25.260Z,5.37
2022-11-30T11:23:55.885Z,5.39
2022-11-30T11:26:29.060Z,5.38
2022-11-30T11:29:02.413Z,5.27
2022-11-30T11:31:41.135Z,5.26
2022-11-30T11:34:24.733Z,5.31
2022-11-30T11:37:21.057Z,5.24
2022-11-30T11:40:05.730Z,5.27
2022-11-30T11:42:42.314Z,5.28
2022-11-30T11:45:38.474Z,5.29
2022-11-30T11:48:29.259Z,5.36
2022-11-30T11:51:07.831Z,5.38
2022-11-30T11:53:53.607Z,5.28
2022-11-30T11:56:31.722Z,5.35
2022-11-30T11:59:01.411Z,5.34
2022-11-30T12:02:21.633Z,5.30
2022-11-30T12:05:03.860Z,5.38
2022-11-30T12:07:45.907Z,5.38
2022-11-30T12:10:51.668Z,5.43
2022-11-30T12:13:27.364Z,5.49
2022-11-30T12:16:20.643Z,5.50
2022-11-30T12:19:00.368Z,5.55
2022-11-30T12:21:45.550Z,5.59
2022-11-30T12:24:18.777Z,5.59
2022-11-30T12:26:53.389Z,5.65
2022-11-30T12:29:25.350Z,5.63
2022-11-30T12:32:24.818Z,5.65
2022-11-30T12:35:09.350Z,5.66
2022-11-30T12:37:48.332Z,5.72
2022-11-30T12:40:18.661Z,5.72
2022-11-30T12:43:11.049Z,5.73
2022-11-30T12:45:44.360Z,5.74
2022-11-30T12:48:38.289Z,5.72
2022-11-30T12:51:29.582Z,5.74
2022-11-30T12:54:23.892Z,5.71
2022-11-30T12:56:51.270Z,5.71
2022-11-30T12:59:45.163Z,5.72
2022-11-30T13:02:31.291Z,5.71
2022-11-30T13:05:04.184Z,5.69
2022-11-30T13:07:52.871Z,5.71
2022-11-30T13:10:59.326Z,5.70
2022-11-30T13:13:32.295Z,5.71
2022-11-30T13:16:04.287Z,5.70
2022-11-30T13:18:36.343Z,5.73
2022-11-30T13:21:34.489Z,5.70
2022-11-30T13:24:14.218Z,5.67
2022-11-30T13:26:45.678Z,5.59
2022-11-30T13:29:31.627Z,5.65
2022-11-30T13:32:27.681Z,5.65
2022-11-30T13:35:29.101Z,5.64
2022-11-30T13:41:08.542Z,5.62
2022-11-30T13:43:44.237Z,5.62
2022-11-30T13:46:16.331Z,5.60
2022-11-30T13:48:45.111Z,5.58
2022-11-30T13:51:12.713Z,5.60
2022-11-30T13:53:40.962Z,5.55
2022-11-30T13:56:17.773Z,5.58
2022-11-30T13:59:25.462Z,5.59
2022-11-30T14:02:13.794Z,5.57
2022-11-30T14:04:46.531Z,5.58
2022-11-30T14:07:36.610Z,5.57
2022-11-30T14:10:05.954Z,5.61
2022-11-30T14:12:34.667Z,5.55
2022-11-30T14:15:03.840Z,5.51
2022-11-30T14:17:35.206Z,5.49
2022-11-30T14:20:14.843Z,5.48
2022-11-30T14:22:44.221Z,5.46
2022-11-30T14:25:17.985Z,5.44
2022-11-30T14:27:47.183Z,5.40
2022-11-30T14:30:21.048Z,5.34
2022-11-30T14:33:04.954Z,5.32
2022-11-30T14:35:33.497Z,5.30
2022-11-30T14:38:03.642Z,5.25
2022-11-30T14:40:31.161Z,5.24
2022-11-30T14:43:02.561Z,5.23
2022-11-30T14:45:34.796Z,5.23
2022-11-30T14:48:16.832Z,5.21
2022-11-30T14:50:48.547Z,5.20
2022-11-30T14:53:34.651Z,5.15
2022-11-30T14:56:30.524Z,5.16
2022-11-30T14:59:36.897Z,5.15
2022-11-30T15:02:12.936Z,5.12
2022-11-30T15:04:40.512Z,5.11
2022-11-30T15:07:13.520Z,5.10
2022-11-30T15:09:43.662Z,5.09
2022-11-30T15:12:21.973Z,5.07
2022-11-30T15:15:14.348Z,5.06
2022-11-30T15:17:57.644Z,5.05
2022-11-30T15:20:44.186Z,5.05
2022-11-30T15:23:15.961Z,5.02
2022-11-30T15:25:52.644Z,4.98
2022-11-30T15:28:39.393Z,4.99
2022-11-30T15:31:10.282Z,4.97
2022-11-30T15:33:45.354Z,4.93
2022-11-30T15:36:31.208Z,4.96
2022-11-30T15:39:04.556Z,4.89
2022-11-30T15:41:34.219Z,4.94
2022-11-30T15:44:02.568Z,4.94
2022-11-30T15:46:45.991Z,4.84
2022-11-30T15:49:18.814Z,4.84
2022-11-30T15:51:47.664Z,4.79
2022-11-30T15:54:15.622Z,4.74
2022-11-30T15:56:56.188Z,4.71
2022-11-30T15:59:26.048Z,4.67
2022-11-30T16:02:02.857Z,4.66
2022-11-30T16:04:58.831Z,4.66
2022-11-30T16:07:31.904Z,4.54
2022-11-30T16:10:06.241Z,4.58
2022-11-30T16:12:34.274Z,4.59
2022-11-30T16:15:03.441Z,4.55
2022-11-30T16:17:30.918Z,4.48
2022-11-30T16:19:58.420Z,4.50
2022-11-30T16:22:26.138Z,4.45
2022-11-30T16:24:53.530Z,4.42
2022-11-30T16:27:22.615Z,4.32
2022-11-30T16:29:52.911Z,4.21
2022-11-30T16:32:20.579Z,4.17
2022-11-30T16:34:48.254Z,4.19
2022-11-30T16:37:15.973Z,4.20
2022-11-30T16:39:43.473Z,4.21
2022-11-30T16:42:12.629Z,4.19
2022-11-30T16:44:40.380Z,4.14
2022-11-30T16:47:07.798Z,4.16
2022-11-30T16:49:35.215Z,4.14
2022-11-30T16:52:03.842Z,4.19
2022-11-30T16:54:31.514Z,4.22
2022-11-30T16:56:58.982Z,4.21
2022-11-30T16:59:26.905Z,4.18
2022-11-30T17:01:54.423Z,4.18
2022-11-30T17:04:24.570Z,4.18
2022-11-30T17:06:57.379Z,4.15
2022-11-30T17:09:29.973Z,4.20
2022-11-30T17:11:57.763Z,4.22
2022-11-30T17:14:25.179Z,4.31
2022-11-30T17:16:52.647Z,4.26
2022-11-30T17:19:20.855Z,4.30
2022-11-30T17:21:50.864Z,4.25
2022-11-30T17:24:18.330Z,4.18
2022-11-30T17:26:46.058Z,4.22
2022-11-30T17:29:13.506Z,4.22
2022-11-30T17:31:40.925Z,4.20
2022-11-30T17:34:08.774Z,4.25
2022-11-30T17:36:36.223Z,4.26
2022-11-30T17:39:07.654Z,4.22
2022-11-30T17:41:35.402Z,4.17
2022-11-30T17:44:03.207Z,4.21
2022-11-30T17:46:30.790Z,4.20
2022-11-30T17:48:58.694Z,4.21
2022-11-30T17:51:26.168Z,4.13
2022-11-30T17:53:53.634Z,4.10
2022-11-30T17:56:21.363Z,4.16
2022-11-30T17:58:49.397Z,4.18
2022-11-30T18:01:20.072Z,4.19
2022-11-30T18:03:48.158Z,4.22
2022-11-30T18:06:16.238Z,4.23
2022-11-30T18:08:44.370Z,4.23
2022-11-30T18:11:18.082Z,4.30
2022-11-30T18:13:45.745Z,4.27
2022-11-30T18:16:16.389Z,4.28
2022-11-30T18:18:47.736Z,4.31
2022-11-30T18:21:21.327Z,4.30
2022-11-30T18:23:49.977Z,4.29
2022-11-30T18:26:20.710Z,4.22
2022-11-30T18:28:59.352Z,4.27
2022-11-30T18:31:29.600Z,4.29
2022-11-30T18:34:02.465Z,4.24
2022-11-30T18:36:31.043Z,4.17
2022-11-30T18:38:58.892Z,4.13
2022-11-30T18:41:28.595Z,4.14
2022-11-30T18:43:56.866Z,4.13
2022-11-30T18:46:25.039Z,4.10
2022-11-30T18:48:53.443Z,4.15
2022-11-30T18:51:24.526Z,4.20
2022-11-30T18:53:59.953Z,4.14
2022-11-30T18:56:31.429Z,4.23
2022-11-30T18:59:06.025Z,4.26
2022-11-30T19:01:34.914Z,4.26
2022-11-30T19:04:05.979Z,4.27
2022-11-30T19:06:34.270Z,4.28
2022-11-30T19:09:04.451Z,4.35
2022-11-30T19:11:33.542Z,4.32
2022-11-30T19:14:01.838Z,4.38
2022-11-30T19:16:31.230Z,4.38
2022-11-30T19:19:04.170Z,4.43
2022-11-30T19:21:32.206Z,4.44
2022-11-30T19:24:00.462Z,4.47
2022-11-30T19:26:28.541Z,4.37
2022-11-30T19:28:57.969Z,4.33
2022-11-30T19:31:26.250Z,4.36
2022-11-30T19:33:55.483Z,4.35
2022-11-30T19:36:27.875Z,4.27
2022-11-30T19:38:58.180Z,4.26
2022-11-30T19:41:27.131Z,4.27
2022-11-30T19:44:03.715Z,4.27
2022-11-30T19:46:33.344Z,4.30
2022-11-30T19:49:02.020Z,4.26
2022-11-30T19:51:31.232Z,4.31
2022-11-30T19:54:02.073Z,4.33
2022-11-30T19:56:31.582Z,4.42
2022-11-30T19:59:04.417Z,4.36
2022-11-30T20:01:34.545Z,4.41
2022-11-30T20:04:03.009Z,4.48
2022-11-30T20:06:33.719Z,4.52
2022-11-30T20:09:01.950Z,4.50
2022-11-30T20:11:29.801Z,4.50
2022-11-30T20:13:57.334Z,4.53
2022-11-30T20:16:24.863Z,4.54
2022-11-30T20:19:00.967Z,4.56
2022-11-30T20:21:34.242Z,4.60
2022-11-30T20:24:06.187Z,4.54
2022-11-30T20:26:42.597Z,4.55
2022-11-30T20:29:15.805Z,4.55
2022-11-30T20:31:45.189Z,4.50
2022-11-30T20:34:12.964Z,4.51
2022-11-30T20:36:40.471Z,4.46
2022-11-30T20:39:08.451Z,4.39
2022-11-30T20:41:36.242Z,4.42
2022-11-30T20:44:03.843Z,4.40
2022-11-30T20:46:34.151Z,4.41
2022-11-30T20:49:03.471Z,4.38
2022-11-30T20:51:34.694Z,4.40
2022-11-30T20:54:06.692Z,4.36
2022-11-30T20:56:36.840Z,4.41
2022-11-30T20:59:07.738Z,4.45
2022-11-30T21:01:36.109Z,4.44
2022-11-30T21:04:04.145Z,4.38
2022-11-30T21:06:32.028Z,4.43
2022-11-30T21:08:59.763Z,4.40
2022-11-30T21:11:28.896Z,4.33
2022-11-30T21:13:57.442Z,4.28
2022-11-30T21:16:28.517Z,4.23
2022-11-30T21:18:59.143Z,4.26
2022-11-30T21:21:30.873Z,4.22
2022-11-30T21:24:01.370Z,4.22
2022-11-30T21:26:38.164Z,4.23
2022-11-30T21:29:17.510Z,4.23
2022-11-30T21:31:45.591Z,4.24
2022-11-30T21:34:13.818Z,4.23
2022-11-30T21:36:41.663Z,4.21
2022-11-30T21:39:12.419Z,4.24
2022-11-30T21:41:40.896Z,4.24
2022-11-30T21:44:11.580Z,4.30
2022-11-30T21:46:39.116Z,4.26
2022-11-30T21:49:07.380Z,4.30
2022-11-30T21:51:34.943Z,4.32
2022-11-30T21:54:06.115Z,4.35
2022-11-30T21:56:36.367Z,4.37
2022-11-30T21:59:05.877Z,4.33
2022-11-30T22:01:43.341Z,4.35
2022-11-30T22:04:13.873Z,4.32
2022-11-30T22:06:42.620Z,4.32
2022-11-30T22:09:15.314Z,4.37
2022-11-30T22:11:45.231Z,4.39
2022-11-30T22:14:15.957Z,4.42
2022-11-30T22:16:44.485Z,4.35
2022-11-30T22:19:12.042Z,4.37
2022-11-30T22:21:39.702Z,4.35
2022-11-30T22:24:11.008Z,4.25
2022-11-30T22:26:41.034Z,4.23
2022-11-30T22:29:17.099Z,4.27
2022-11-30T22:31:46.675Z,4.32
2022-11-30T22:34:15.069Z,4.39
2022-11-30T22:36:44.417Z,4.37
2022-11-30T22:39:14.757Z,4.35
2022-11-30T22:41:45.322Z,4.40
2022-11-30T22:44:17.058Z,4.36
2022-11-30T22:46:45.941Z,4.38
2022-11-30T22:49:20.223Z,4.40
2022-11-30T22:51:50.686Z,4.40
2022-11-30T22:54:18.760Z,4.38
2022-11-30T22:56:46.928Z,4.33
2022-11-30T22:59:15.591Z,4.35
2022-11-30T23:01:48.583Z,4.38
2022-11-30T23:04:19.427Z,4.35
2022-11-30T23:06:48.740Z,4.34
2022-11-30T23:09:23.060Z,4.32
2022-11-30T23:11:51.209Z,4.28
2022-11-30T23:14:19.339Z,4.30
2022-11-30T23:16:47.426Z,4.24
2022-11-30T23:19:15.465Z,4.29
2022-11-30T23:21:47.322Z,4.30
2022-11-30T23:24:17.634Z,4.30
2022-11-30T23:26:46.308Z,4.30
2022-11-30T23:29:15.961Z,4.31
2022-11-30T23:31:44.740Z,4.32
2022-11-30T23:34:21.740Z,4.35
2022-11-30T23:36:50.192Z,4.32
2022-11-30T23:39:19.478Z,4.31
2022-11-30T23:41:47.065Z,4.31
2022-11-30T23:44:14.718Z,4.33
2022-11-30T23:46:42.537Z,4.33
2022-11-30T23:49:12.533Z,4.27
2022-11-30T23:51:40.021Z,4.31
2022-11-30T23:54:07.791Z,4.27
2022-11-30T23:56:35.257Z,4.27
2022-11-30T23:59:02.760Z,4.32
